sim
Sign-in with your pilot id or email,
or register
Callsign
Passwort

Schedule Details

Flight Number: DLH2417
Departure: Stockholm Arlanda Airport (ESSA) at 14:10
Arrival: Munich Airport (EDDM) at 16:20
Route: Lufthansa Passenger Schedule. Enter filed route here before submitting Pirep.

Weather Information
Getting current METAR information for ESSA 210220Z 25006KT CAVOK 10/10 Q1014 NOSIG
Getting current METAR information for EDDM 210220Z VRB02KT CAVOK 09/09 Q1016 NOSIG

Schedule Frequency

Route Map